Terminal Aerodrome Forecast
Issued by NWS Blacksburg, VA

Current Version | Previous Version | Graphics & Text | Print | Product List | Glossary On
Versions: 1 2 3 4 5 6 7 8 9 10 11 12 13 14 15 16 17 18 19 20 21 22
000
FTUS41 KRNK 221508 AAB
TAFBLF
TAF AMD
KBLF 221508Z 2215/2312 00000KT 5SM -RA BR OVC008
      TEMPO 2215/2217 3SM -RA BR SCT008 OVC070
     FM221800 18004KT 5SM -RA BR OVC020
      TEMPO 2218/2220 2SM -RA OVC007
     FM230100 17004KT 4SM BR OVC015=

USA.gov is the U.S. government's official web portal to all federal, state and local government web resources and services.